Overview Statistics Trail Chart Weather Telemetry Raw packets
 

This is the latest recevied weather packets stored in our database for station/object LU2DKV-10. If no packets are shown the sender has not sent any weather packets the latest 10 day(s).

<< 10 11 12 13 14 15 16 >>
Time Temp. Humidity Pressure Rain* Wind** Luminosity Snow
1788089711 14.44° C 82% 1017 hPa - - 0 W/m² -
1788087890 11.11° C 89% 1017 hPa - - 0 W/m² -
1788086069 10.56° C 90% 1017 hPa - - 0 W/m² -
1788084246 10° C 91% 1017 hPa - - 0 W/m² -
1788082420 10.56° C 90% 1017 hPa - - 0 W/m² -
1788080599 10.56° C 90% 1017 hPa - - 0 W/m² -
1788078776 10.56° C 92% 1016 hPa - - 0 W/m² -
1788076954 11.11° C 92% 1016 hPa - - 0 W/m² -
1788075131 11.11° C 92% 1016 hPa - - 0 W/m² -
1788073307 11.11° C 90% 1017 hPa - - 0 W/m² -
1788073179 11.11° C 90% 1017 hPa - - 0 W/m² -
1788071356 11.67° C 90% 1017 hPa - - 0 W/m² -
1788069534 11.67° C 89% 1017 hPa - - 0 W/m² -
1788067713 11.67° C 90% 1017 hPa - - 0 W/m² -
1788065888 12.22° C 88% 1017 hPa - - 0 W/m² -
1788064063 12.22° C 87% 1017 hPa - - 0 W/m² -
1788062241 12.22° C 87% 1016 hPa - - 0 W/m² -
1788060417 12.78° C 86% 1016 hPa - - 0 W/m² -
1788058593 12.78° C 84% 1016 hPa - - 0 W/m² -
1788056769 13.33° C 84% 1016 hPa - - 0 W/m² -
1788054944 13.33° C 83% 1016 hPa - - 0 W/m² -
1788053121 13.89° C 80% 1016 hPa - - 0 W/m² -
1788051294 13.89° C 76% 1016 hPa - - 0 W/m² -
1788049465 13.89° C 65% 1016 hPa - - 0 W/m² -
1788047642 14.44° C 59% 1016 hPa - - 0 W/m² -

* Rain since midnight (hover to see other rain measurements)
** Current wind speed in m/s (hover to see current wind gust speed)